createdAt,value
2022-09-06T00:00:17.173Z,10.05
2022-09-06T00:01:20.065Z,10.98
2022-09-06T00:02:22.851Z,11.28
2022-09-06T00:03:25.587Z,11.69
2022-09-06T00:04:28.317Z,9.12
2022-09-06T00:05:31.127Z,13.59
2022-09-06T00:06:34.117Z,11.72
2022-09-06T00:07:37.701Z,10.08
2022-09-06T00:08:40.366Z,12.10
2022-09-06T00:09:43.039Z,12.96
2022-09-06T00:10:45.801Z,12.38
2022-09-06T00:11:48.777Z,12.12
2022-09-06T00:12:51.648Z,12.68
2022-09-06T00:13:54.434Z,20.72
2022-09-06T00:14:57.213Z,12.27
2022-09-06T00:16:00.319Z,14.83
2022-09-06T00:17:03.056Z,22.83
2022-09-06T00:18:06.040Z,17.62
2022-09-06T00:19:08.706Z,15.30
2022-09-06T00:20:11.505Z,13.01
2022-09-06T00:21:14.347Z,15.15
2022-09-06T00:22:17.871Z,12.65
2022-09-06T00:23:21.019Z,13.05
2022-09-06T00:24:24.097Z,14.26
2022-09-06T00:25:27.081Z,13.89
2022-09-06T00:26:30.057Z,13.44
2022-09-06T00:27:33.544Z,14.28
2022-09-06T00:28:36.223Z,13.24
2022-09-06T00:29:39.301Z,13.41
2022-09-06T00:30:42.202Z,16.29
2022-09-06T00:31:44.836Z,15.81
2022-09-06T00:32:48.028Z,17.08
2022-09-06T00:33:50.695Z,15.74
2022-09-06T00:34:53.561Z,13.28
2022-09-06T00:35:56.244Z,13.52
2022-09-06T00:36:58.908Z,14.91
2022-09-06T00:38:01.689Z,14.52
2022-09-06T00:39:04.450Z,13.78
2022-09-06T00:40:07.285Z,14.29
2022-09-06T00:41:10.004Z,13.05
2022-09-06T00:42:12.766Z,18.78
2022-09-06T00:43:16.162Z,12.62
2022-09-06T00:44:18.827Z,10.95
2022-09-06T00:45:21.804Z,10.65
2022-09-06T00:46:24.731Z,13.08
2022-09-06T00:47:27.662Z,9.55
2022-09-06T00:48:30.525Z,8.88
2022-09-06T00:49:33.511Z,9.59
2022-09-06T00:50:36.279Z,8.47
2022-09-06T00:51:39.369Z,7.99
2022-09-06T00:52:42.022Z,9.48
2022-09-06T00:53:45.217Z,9.98
2022-09-06T00:54:47.883Z,9.75
2022-09-06T00:55:53.622Z,9.12
2022-09-06T00:56:56.594Z,13.71
2022-09-06T00:58:00.499Z,12.10
2022-09-06T00:59:03.671Z,9.65
2022-09-06T01:00:07.165Z,10.59
2022-09-06T01:01:10.710Z,13.29
2022-09-06T01:02:14.306Z,13.57
2022-09-06T01:03:17.325Z,12.87
2022-09-06T01:04:20.813Z,12.03
2022-09-06T01:05:23.686Z,10.50
2022-09-06T01:06:26.565Z,12.51
2022-09-06T01:07:29.951Z,10.33
2022-09-06T01:08:32.735Z,10.49
2022-09-06T01:09:35.697Z,13.74
2022-09-06T01:10:38.573Z,11.72
2022-09-06T01:11:41.657Z,9.25
2022-09-06T01:12:44.626Z,10.75
2022-09-06T01:13:47.411Z,10.06
2022-09-06T01:14:50.478Z,7.84
2022-09-06T01:15:53.523Z,10.40
2022-09-06T01:16:56.538Z,11.22
2022-09-06T01:17:59.614Z,9.22
2022-09-06T01:19:02.696Z,9.29
2022-09-06T01:20:05.882Z,11.02
2022-09-06T01:21:08.952Z,10.95
2022-09-06T01:22:12.133Z,11.19
2022-09-06T01:23:15.225Z,8.53
2022-09-06T01:24:18.290Z,10.58
2022-09-06T01:25:23.260Z,11.56
2022-09-06T01:26:26.317Z,9.23
2022-09-06T01:27:29.285Z,9.14
2022-09-06T01:28:32.679Z,8.18
2022-09-06T01:29:39.021Z,9.49
2022-09-06T01:30:42.343Z,10.08
2022-09-06T01:31:45.079Z,10.18
2022-09-06T01:32:48.365Z,10.18
2022-09-06T01:33:51.448Z,10.45
2022-09-06T01:34:54.729Z,12.31
2022-09-06T01:35:58.010Z,10.78
2022-09-06T01:37:10.836Z,13.78
2022-09-06T01:38:06.825Z,10.71
2022-09-06T01:39:09.925Z,14.32
2022-09-06T01:40:13.200Z,10.87
2022-09-06T01:41:16.681Z,9.87
2022-09-06T01:42:19.764Z,9.48
2022-09-06T01:43:22.628Z,9.62
2022-09-06T01:44:25.721Z,13.25
2022-09-06T01:45:28.406Z,10.02
2022-09-06T01:46:31.240Z,12.52
2022-09-06T01:47:34.657Z,8.08
2022-09-06T01:48:37.728Z,8.24
2022-09-06T01:49:40.701Z,9.10
2022-09-06T01:50:44.001Z,8.62
2022-09-06T01:51:46.768Z,7.35
2022-09-06T01:52:49.539Z,7.02
2022-09-06T01:53:52.320Z,7.81
2022-09-06T01:54:54.977Z,6.96
2022-09-06T01:55:57.763Z,11.02
2022-09-06T01:57:00.727Z,7.93
2022-09-06T01:58:03.606Z,8.18
2022-09-06T01:59:06.273Z,9.47
2022-09-06T02:00:09.154Z,8.93
2022-09-06T02:01:12.010Z,8.80
2022-09-06T02:02:14.743Z,6.50
2022-09-06T02:03:17.567Z,9.40
2022-09-06T02:04:20.743Z,7.28
2022-09-06T02:05:23.532Z,6.22
2022-09-06T02:06:27.322Z,7.65
2022-09-06T02:07:30.705Z,8.20
2022-09-06T02:08:33.672Z,8.45
2022-09-06T02:09:36.444Z,9.05
2022-09-06T02:10:39.242Z,8.27
2022-09-06T02:11:42.308Z,7.22
2022-09-06T02:12:45.175Z,7.42
2022-09-06T02:13:48.157Z,7.35
2022-09-06T02:14:50.823Z,8.82
2022-09-06T02:15:53.801Z,6.91
2022-09-06T02:16:56.867Z,10.50
2022-09-06T02:18:00.267Z,7.76
2022-09-06T02:19:03.454Z,7.80
2022-09-06T02:20:06.116Z,10.17
2022-09-06T02:21:08.786Z,8.25
2022-09-06T02:22:11.772Z,8.60
2022-09-06T02:23:15.082Z,6.78
2022-09-06T02:24:17.726Z,8.78
2022-09-06T02:25:21.874Z,9.00
2022-09-06T02:26:25.319Z,7.61
2022-09-06T02:27:30.992Z,7.65
2022-09-06T02:28:33.417Z,7.99
2022-09-06T02:29:36.400Z,9.66
2022-09-06T02:30:39.735Z,5.50
2022-09-06T02:31:43.064Z,7.65
2022-09-06T02:32:46.252Z,7.49
2022-09-06T02:33:49.849Z,7.82
2022-09-06T02:34:53.063Z,6.88
2022-09-06T02:35:55.999Z,7.52
2022-09-06T02:36:58.859Z,7.18
2022-09-06T02:38:02.059Z,8.00
2022-09-06T02:39:05.153Z,4.99
2022-09-06T02:40:08.505Z,6.18
2022-09-06T02:41:11.820Z,5.25
2022-09-06T02:42:14.577Z,7.12
2022-09-06T02:43:17.448Z,4.98
2022-09-06T02:44:20.628Z,6.89
2022-09-06T02:45:24.016Z,6.88
2022-09-06T02:46:28.191Z,8.09
2022-09-06T02:48:45.845Z,7.23
2022-09-06T02:49:48.721Z,2.08
2022-09-06T02:50:51.915Z,5.04
2022-09-06T02:51:54.983Z,4.42
2022-09-06T02:52:57.960Z,6.15
2022-09-06T02:54:00.859Z,5.89
2022-09-06T02:55:03.717Z,5.03
2022-09-06T02:56:06.784Z,5.05
2022-09-06T02:57:12.732Z,6.46
2022-09-06T02:58:16.109Z,7.54
2022-09-06T02:59:19.610Z,6.09
2022-09-06T03:00:23.185Z,6.88
2022-09-06T03:01:26.337Z,6.72
2022-09-06T03:02:29.611Z,8.76
2022-09-06T03:03:33.149Z,7.23
2022-09-06T03:04:36.538Z,6.19
2022-09-06T03:05:39.814Z,6.78
2022-09-06T03:06:43.206Z,7.84
2022-09-06T03:07:46.486Z,5.72
2022-09-06T03:08:49.711Z,5.12
2022-09-06T03:09:52.958Z,6.94
2022-09-06T03:10:56.289Z,6.33
2022-09-06T03:11:59.728Z,7.06
2022-09-06T03:13:03.008Z,6.97
2022-09-06T03:14:06.187Z,5.59
2022-09-06T03:15:09.275Z,7.22
2022-09-06T03:16:12.760Z,7.01
2022-09-06T03:17:16.082Z,7.68
2022-09-06T03:18:19.432Z,7.19
2022-09-06T03:19:22.715Z,10.42
2022-09-06T03:20:26.198Z,6.64
2022-09-06T03:21:29.585Z,8.07
2022-09-06T03:22:32.572Z,6.44
2022-09-06T03:23:35.952Z,7.05
2022-09-06T03:24:39.236Z,7.14
2022-09-06T03:25:42.627Z,7.95
2022-09-06T03:26:46.025Z,5.99
2022-09-06T03:27:49.092Z,7.23
2022-09-06T03:28:52.373Z,8.04
2022-09-06T03:29:55.347Z,7.55
2022-09-06T03:30:58.591Z,8.18
2022-09-06T03:32:01.818Z,7.08
2022-09-06T03:33:04.898Z,9.32
2022-09-06T03:34:11.090Z,7.91
2022-09-06T03:35:13.120Z,6.32
2022-09-06T03:36:16.299Z,6.79
2022-09-06T03:37:19.677Z,6.78
2022-09-06T03:38:23.329Z,6.89
2022-09-06T03:39:26.500Z,7.26
2022-09-06T03:40:29.525Z,7.61
2022-09-06T03:41:32.604Z,7.78
2022-09-06T03:42:35.798Z,5.05
2022-09-06T03:43:38.760Z,6.80
2022-09-06T03:44:41.740Z,7.18
2022-09-06T03:45:44.861Z,6.08
2022-09-06T03:46:48.099Z,6.98
2022-09-06T03:47:51.499Z,8.58
2022-09-06T03:48:54.586Z,6.46
2022-09-06T03:49:57.747Z,5.45
2022-09-06T03:51:00.835Z,5.95
2022-09-06T03:52:04.006Z,7.92
2022-09-06T03:53:06.988Z,6.99
2022-09-06T03:54:10.174Z,5.57
2022-09-06T03:55:13.357Z,6.18
2022-09-06T03:56:16.632Z,7.01
2022-09-06T03:57:19.845Z,7.24
2022-09-06T03:58:23.571Z,5.34
2022-09-06T03:59:27.100Z,4.62
2022-09-06T04:00:30.426Z,4.46
2022-09-06T04:01:34.096Z,5.17
2022-09-06T04:02:37.389Z,5.79
2022-09-06T04:03:40.647Z,4.85
2022-09-06T04:04:43.520Z,3.72
2022-09-06T04:05:46.501Z,4.04
2022-09-06T04:06:49.604Z,5.39
2022-09-06T04:07:53.587Z,5.09
2022-09-06T04:08:56.976Z,5.96
2022-09-06T04:10:00.050Z,6.87
2022-09-06T04:11:03.037Z,7.88
2022-09-06T04:12:06.100Z,6.99
2022-09-06T04:13:09.204Z,8.06
2022-09-06T04:14:12.173Z,7.55
2022-09-06T04:15:15.240Z,8.28
2022-09-06T04:16:18.587Z,9.58
2022-09-06T04:17:21.712Z,7.59
2022-09-06T04:18:25.394Z,7.42
2022-09-06T04:19:28.474Z,8.90
2022-09-06T04:20:31.454Z,9.75
2022-09-06T04:21:34.942Z,9.19
2022-09-06T04:22:37.612Z,8.27
2022-09-06T04:23:40.898Z,5.18
2022-09-06T04:24:43.873Z,5.30
2022-09-06T04:25:46.766Z,9.67
2022-09-06T04:26:50.056Z,7.67
2022-09-06T04:27:55.979Z,5.12
2022-09-06T04:28:59.159Z,6.42
2022-09-06T04:30:02.456Z,6.05
2022-09-06T04:31:05.760Z,5.47
2022-09-06T04:32:08.888Z,8.27
2022-09-06T04:33:12.093Z,6.78
2022-09-06T04:34:15.378Z,4.90
2022-09-06T04:35:18.361Z,6.85
2022-09-06T04:36:21.557Z,6.06
2022-09-06T04:37:24.721Z,6.44
2022-09-06T04:38:27.707Z,7.95
2022-09-06T04:39:30.952Z,6.93
2022-09-06T04:40:34.021Z,6.93
2022-09-06T04:41:37.386Z,8.15
2022-09-06T04:42:40.634Z,8.75
2022-09-06T04:43:43.502Z,7.00
2022-09-06T04:44:46.702Z,6.28
2022-09-06T04:45:49.929Z,5.75
2022-09-06T04:46:54.733Z,8.58
2022-09-06T04:47:57.254Z,7.25
2022-09-06T04:49:00.133Z,8.85
2022-09-06T04:50:03.427Z,6.45
2022-09-06T04:51:06.696Z,9.01
2022-09-06T04:52:09.983Z,6.90
2022-09-06T04:53:16.237Z,5.25
2022-09-06T04:54:19.739Z,6.84
2022-09-06T04:55:23.122Z,7.93
2022-09-06T04:56:29.499Z,8.48
2022-09-06T04:57:32.362Z,6.08
2022-09-06T04:58:35.118Z,7.68
2022-09-06T04:59:38.244Z,4.19
2022-09-06T05:00:41.450Z,4.31
2022-09-06T05:01:44.657Z,4.51
2022-09-06T05:02:47.434Z,4.42
2022-09-06T05:03:53.951Z,7.47
2022-09-06T05:04:55.334Z,6.79
2022-09-06T05:05:58.526Z,7.02
2022-09-06T05:07:01.492Z,4.38
2022-09-06T05:08:04.673Z,4.18
2022-09-06T05:09:07.754Z,6.47
2022-09-06T05:10:10.940Z,5.02
2022-09-06T05:11:14.217Z,6.23
2022-09-06T05:12:17.306Z,5.74
2022-09-06T05:13:20.606Z,5.06
2022-09-06T05:14:23.969Z,5.65
2022-09-06T05:15:27.160Z,5.04
2022-09-06T05:16:30.692Z,4.76
2022-09-06T05:17:33.933Z,6.81
2022-09-06T05:18:37.108Z,6.14
2022-09-06T05:19:40.293Z,6.05
2022-09-06T05:20:43.568Z,5.35
2022-09-06T05:21:46.962Z,4.28
2022-09-06T05:22:50.148Z,7.01
2022-09-06T05:23:57.891Z,6.49
2022-09-06T05:24:57.736Z,7.59
2022-09-06T05:26:01.022Z,6.86
2022-09-06T05:27:04.208Z,6.72
2022-09-06T05:28:07.382Z,6.07
2022-09-06T05:29:10.151Z,4.45
2022-09-06T05:30:13.229Z,6.50
2022-09-06T05:31:16.405Z,4.45
2022-09-06T05:32:19.594Z,4.19
2022-09-06T05:33:22.471Z,4.12
2022-09-06T05:34:25.652Z,3.22
2022-09-06T05:35:28.727Z,4.71
2022-09-06T05:36:31.400Z,3.99
2022-09-06T05:37:34.491Z,6.01
2022-09-06T05:38:37.454Z,5.75
2022-09-06T05:39:40.368Z,4.92
2022-09-06T05:40:43.106Z,5.49
2022-09-06T05:41:46.081Z,6.01
2022-09-06T05:42:49.384Z,6.69
2022-09-06T05:43:52.341Z,5.80
2022-09-06T05:44:55.523Z,4.46
2022-09-06T05:45:58.660Z,3.86
2022-09-06T05:47:01.478Z,6.61
2022-09-06T05:48:04.659Z,5.38
2022-09-06T05:49:07.533Z,6.60
2022-09-06T05:50:10.620Z,6.46
2022-09-06T05:51:13.403Z,6.05
2022-09-06T05:52:15.883Z,5.93
2022-09-06T05:53:19.142Z,5.05
2022-09-06T05:54:22.623Z,4.89
2022-09-06T05:55:26.322Z,4.76
2022-09-06T05:56:29.725Z,6.27
2022-09-06T05:57:33.001Z,4.28
2022-09-06T05:58:36.099Z,6.60
2022-09-06T05:59:39.151Z,5.76
2022-09-06T06:00:42.338Z,4.96
2022-09-06T06:01:45.619Z,4.57
2022-09-06T06:02:48.788Z,4.88
2022-09-06T06:03:51.582Z,4.71
2022-09-06T06:04:54.864Z,4.87
2022-09-06T06:05:57.624Z,7.91
2022-09-06T06:07:00.812Z,4.82
2022-09-06T06:08:04.093Z,6.42
2022-09-06T06:09:07.172Z,5.11
2022-09-06T06:10:10.177Z,6.05
2022-09-06T06:11:13.233Z,5.11
2022-09-06T06:12:16.411Z,4.20
2022-09-06T06:13:19.698Z,5.11
2022-09-06T06:14:22.984Z,5.80
2022-09-06T06:15:26.065Z,3.48
2022-09-06T06:16:29.242Z,2.98
2022-09-06T06:17:32.631Z,3.73
2022-09-06T06:18:35.808Z,5.80
2022-09-06T06:19:38.682Z,3.88
2022-09-06T06:20:41.467Z,3.38
2022-09-06T06:21:44.739Z,3.93
2022-09-06T06:22:47.612Z,4.37
2022-09-06T06:23:51.219Z,5.51
2022-09-06T06:24:54.089Z,5.62
2022-09-06T06:25:57.170Z,4.05
2022-09-06T06:27:00.239Z,5.37
2022-09-06T06:28:03.424Z,5.47
2022-09-06T06:29:06.708Z,5.66
2022-09-06T06:30:09.582Z,4.61
2022-09-06T06:31:12.470Z,4.20
2022-09-06T06:32:15.733Z,6.77
2022-09-06T06:33:18.612Z,6.78
2022-09-06T06:34:21.695Z,5.12
2022-09-06T06:35:25.086Z,7.51
2022-09-06T06:36:28.168Z,6.09
2022-09-06T06:37:31.054Z,5.60
2022-09-06T06:38:34.015Z,6.51
2022-09-06T06:39:36.981Z,3.75
2022-09-06T06:40:39.970Z,5.11
2022-09-06T06:41:43.059Z,5.94
2022-09-06T06:42:46.328Z,6.22
2022-09-06T06:43:49.843Z,8.22
2022-09-06T06:44:53.098Z,7.15
2022-09-06T06:45:56.232Z,7.89
2022-09-06T06:46:59.581Z,4.92
2022-09-06T06:48:03.168Z,5.18
2022-09-06T06:49:06.344Z,5.35
2022-09-06T06:50:09.674Z,8.22
2022-09-06T06:51:13.534Z,5.89
2022-09-06T06:52:17.032Z,5.18
2022-09-06T06:53:20.601Z,5.23
2022-09-06T06:54:24.298Z,9.25
2022-09-06T06:55:27.795Z,5.84
2022-09-06T06:56:30.986Z,5.89
2022-09-06T06:57:34.783Z,4.38
2022-09-06T06:58:37.842Z,5.52
2022-09-06T06:59:41.236Z,6.33
2022-09-06T07:00:44.740Z,3.75
2022-09-06T07:01:47.810Z,6.63
2022-09-06T07:02:50.989Z,4.95
2022-09-06T07:03:54.388Z,5.63
2022-09-06T07:04:57.652Z,6.19
2022-09-06T07:06:16.409Z,5.22
2022-09-06T07:08:10.779Z,8.37
2022-09-06T07:09:13.962Z,6.69
2022-09-06T07:11:24.437Z,5.00
2022-09-06T07:12:27.092Z,5.24
2022-09-06T07:13:30.280Z,5.54
2022-09-06T07:14:33.875Z,4.02
2022-09-06T07:15:37.477Z,8.45
2022-09-06T07:16:41.047Z,6.43
2022-09-06T07:17:47.099Z,6.92
2022-09-06T07:18:50.508Z,6.24
2022-09-06T07:22:05.779Z,5.18
2022-09-06T07:24:13.053Z,4.97
2022-09-06T07:25:21.277Z,5.56
2022-09-06T07:26:21.386Z,6.39
2022-09-06T07:28:29.570Z,5.98
2022-09-06T07:29:32.543Z,6.40
2022-09-06T07:30:36.039Z,8.84
2022-09-06T07:32:44.131Z,7.00
2022-09-06T07:33:47.623Z,9.36
2022-09-06T07:34:50.399Z,9.32
2022-09-06T07:35:53.494Z,6.75
2022-09-06T07:36:56.781Z,6.39
2022-09-06T07:38:00.263Z,5.93
2022-09-06T07:39:03.527Z,7.10
2022-09-06T07:40:07.110Z,6.06
2022-09-06T07:41:10.418Z,6.27
2022-09-06T07:42:13.691Z,6.84
2022-09-06T07:43:16.870Z,5.23
2022-09-06T07:44:20.161Z,7.41
2022-09-06T07:45:23.340Z,8.75
2022-09-06T07:46:26.675Z,6.47
2022-09-06T07:48:34.528Z,4.79
2022-09-06T07:49:38.139Z,5.92
2022-09-06T07:50:49.399Z,8.12
2022-09-06T07:51:46.017Z,6.72
2022-09-06T07:54:06.941Z,5.18
2022-09-06T07:54:58.533Z,7.53
2022-09-06T07:56:01.615Z,7.21
2022-09-06T07:57:04.689Z,7.68
2022-09-06T07:58:08.081Z,5.38
2022-09-06T07:59:11.256Z,5.91
2022-09-06T08:00:14.464Z,8.51
2022-09-06T08:01:17.907Z,5.21
2022-09-06T08:02:20.946Z,8.19
2022-09-06T08:03:24.061Z,7.18
2022-09-06T08:04:27.385Z,6.53
2022-09-06T08:07:40.525Z,7.16
2022-09-06T08:08:59.578Z,7.40
2022-09-06T08:09:48.602Z,6.81
2022-09-06T08:10:51.519Z,7.82
2022-09-06T08:11:54.970Z,8.91
2022-09-06T08:12:58.560Z,8.63
2022-09-06T08:14:01.950Z,11.09
2022-09-06T08:15:05.436Z,8.96
2022-09-06T08:16:08.524Z,8.67
2022-09-06T08:17:12.101Z,8.76
2022-09-06T08:18:15.286Z,9.95
2022-09-06T08:19:18.493Z,9.57
2022-09-06T08:20:22.059Z,8.17
2022-09-06T08:21:24.917Z,9.00
2022-09-06T08:22:28.231Z,10.22
2022-09-06T08:23:31.607Z,8.42
2022-09-06T08:24:34.890Z,7.91
2022-09-06T08:25:38.597Z,6.84
2022-09-06T08:26:41.680Z,5.92
2022-09-06T08:27:45.045Z,9.52
2022-09-06T08:28:48.446Z,8.04
2022-09-06T08:29:51.539Z,6.89
2022-09-06T08:30:54.802Z,9.93
2022-09-06T08:31:58.304Z,9.78
2022-09-06T08:33:01.568Z,7.67
2022-09-06T08:34:04.663Z,7.10
2022-09-06T08:35:07.729Z,8.55
2022-09-06T08:36:11.020Z,7.22
2022-09-06T08:37:14.319Z,5.06
2022-09-06T08:38:17.483Z,5.73
2022-09-06T08:39:20.767Z,6.65
2022-09-06T08:40:24.358Z,7.67
2022-09-06T08:41:27.548Z,9.48
2022-09-06T08:42:30.832Z,11.86
2022-09-06T08:43:34.008Z,7.29
2022-09-06T08:45:41.606Z,8.39
2022-09-06T08:46:44.755Z,6.90
2022-09-06T08:47:48.689Z,8.21
2022-09-06T08:48:51.776Z,6.91
2022-09-06T08:49:54.828Z,8.63
2022-09-06T08:50:57.619Z,9.23
2022-09-06T08:52:00.592Z,10.02
2022-09-06T08:53:16.828Z,9.12
2022-09-06T08:54:08.396Z,8.44
2022-09-06T08:55:11.781Z,7.86
2022-09-06T08:56:14.970Z,10.58
2022-09-06T08:57:18.137Z,15.40
2022-09-06T08:58:21.427Z,12.90
2022-09-06T08:59:24.924Z,12.41
2022-09-06T09:00:27.833Z,11.05
2022-09-06T09:01:30.552Z,10.20
2022-09-06T09:02:33.936Z,9.93
2022-09-06T09:03:37.335Z,10.92
2022-09-06T09:04:40.719Z,7.60
2022-09-06T09:05:43.891Z,9.68
2022-09-06T09:06:46.874Z,11.32
2022-09-06T09:07:49.757Z,12.05
2022-09-06T09:08:52.721Z,8.92
2022-09-06T09:09:55.522Z,12.50
2022-09-06T09:10:58.268Z,12.46
2022-09-06T09:12:01.148Z,11.45
2022-09-06T09:13:04.233Z,12.13
2022-09-06T09:14:07.509Z,11.98
2022-09-06T09:15:10.382Z,9.19
2022-09-06T09:16:13.144Z,11.58
2022-09-06T09:17:16.128Z,13.14
2022-09-06T09:18:19.007Z,16.15
2022-09-06T09:19:22.186Z,11.46
2022-09-06T09:20:25.477Z,13.94
2022-09-06T09:21:30.926Z,10.98
2022-09-06T09:22:33.266Z,11.51
2022-09-06T09:23:36.352Z,12.04
2022-09-06T09:24:39.218Z,11.65
2022-09-06T09:25:42.621Z,11.98
2022-09-06T09:26:45.786Z,11.91
2022-09-06T09:27:48.677Z,9.67
2022-09-06T09:28:51.790Z,12.31
2022-09-06T09:30:59.102Z,13.08
2022-09-06T09:32:02.648Z,12.73
2022-09-06T09:33:06.014Z,14.79
2022-09-06T09:35:27.634Z,13.56
2022-09-06T09:36:30.709Z,13.32
2022-09-06T09:37:51.084Z,11.20
2022-09-06T09:38:37.837Z,10.16
2022-09-06T09:39:40.895Z,11.29
2022-09-06T09:40:43.847Z,9.62
2022-09-06T09:41:47.032Z,11.38
2022-09-06T09:42:49.896Z,9.35
2022-09-06T09:43:53.751Z,11.01
2022-09-06T09:44:56.574Z,11.71
2022-09-06T09:45:59.867Z,10.82
2022-09-06T09:47:02.791Z,11.02
2022-09-06T09:48:06.019Z,10.23
2022-09-06T09:49:09.307Z,12.26
2022-09-06T09:50:12.070Z,11.12
2022-09-06T09:51:23.909Z,10.16
2022-09-06T09:52:20.490Z,10.65
2022-09-06T09:53:25.304Z,7.25
2022-09-06T09:54:28.398Z,8.07
2022-09-06T09:55:31.501Z,9.01
2022-09-06T09:56:34.773Z,10.73
2022-09-06T09:57:37.923Z,10.17
2022-09-06T09:58:40.598Z,9.96
2022-09-06T09:59:43.472Z,8.03
2022-09-06T10:00:46.621Z,7.54
2022-09-06T10:01:49.532Z,9.91
2022-09-06T10:02:52.397Z,9.30
2022-09-06T10:04:59.793Z,10.02
2022-09-06T10:06:03.455Z,10.82
2022-09-06T10:08:10.778Z,11.36
2022-09-06T10:09:17.244Z,9.42
2022-09-06T10:10:18.461Z,7.91
2022-09-06T10:11:21.438Z,7.26
2022-09-06T10:12:24.622Z,7.61
2022-09-06T10:13:28.123Z,7.42
2022-09-06T10:14:31.295Z,6.86
2022-09-06T10:15:34.691Z,9.30
2022-09-06T10:16:37.569Z,7.75
2022-09-06T10:17:41.155Z,9.62
2022-09-06T10:18:44.022Z,8.00
2022-09-06T10:19:46.909Z,10.43
2022-09-06T10:22:07.085Z,9.49
2022-09-06T10:23:10.371Z,5.76
2022-09-06T10:24:29.409Z,9.01
2022-09-06T10:25:18.799Z,7.72
2022-09-06T10:26:21.964Z,7.82
2022-09-06T10:27:24.932Z,10.37
2022-09-06T10:28:28.314Z,7.82
2022-09-06T10:29:31.526Z,7.89
2022-09-06T10:30:34.483Z,5.04
2022-09-06T10:31:38.063Z,6.05
2022-09-06T10:32:40.853Z,9.77
2022-09-06T10:33:44.133Z,18.32
2022-09-06T10:34:47.016Z,6.75
2022-09-06T10:35:49.681Z,7.52
2022-09-06T10:36:52.879Z,5.79
2022-09-06T10:37:56.034Z,7.31
2022-09-06T10:39:03.540Z,6.70
2022-09-06T10:40:03.692Z,14.37
2022-09-06T10:41:06.925Z,10.26
2022-09-06T10:42:10.105Z,9.22
2022-09-06T10:43:13.493Z,9.80
2022-09-06T10:44:16.461Z,12.92
2022-09-06T10:45:19.650Z,10.65
2022-09-06T10:46:22.886Z,9.87
2022-09-06T10:47:26.100Z,10.42
2022-09-06T10:48:29.477Z,8.68
2022-09-06T10:49:32.678Z,9.21
2022-09-06T10:50:35.764Z,6.28
2022-09-06T10:51:38.941Z,6.71
2022-09-06T10:52:41.814Z,6.62
2022-09-06T10:53:45.096Z,3.91
2022-09-06T10:54:48.479Z,6.63
2022-09-06T10:55:51.461Z,6.67
2022-09-06T10:56:54.333Z,8.06
2022-09-06T11:00:07.567Z,10.45
2022-09-06T11:01:10.818Z,9.95
2022-09-06T11:02:14.086Z,7.43
2022-09-06T11:04:21.522Z,10.88
2022-09-06T11:05:40.007Z,9.34
2022-09-06T11:06:29.219Z,8.85
2022-09-06T11:07:31.891Z,11.90
2022-09-06T11:08:51.293Z,9.80
2022-09-06T11:09:39.010Z,7.66
2022-09-06T11:10:42.161Z,9.95
2022-09-06T11:11:44.924Z,9.96
2022-09-06T11:12:48.002Z,11.13
2022-09-06T11:13:51.199Z,12.25
2022-09-06T11:14:53.859Z,11.98
2022-09-06T11:15:56.818Z,12.76
2022-09-06T11:16:59.813Z,15.92
2022-09-06T11:18:02.474Z,11.52
2022-09-06T11:19:05.249Z,9.98
2022-09-06T11:20:08.426Z,9.08
2022-09-06T11:21:11.408Z,10.61
2022-09-06T11:22:14.182Z,8.64
2022-09-06T11:23:17.775Z,8.24
2022-09-06T11:24:20.850Z,9.92
2022-09-06T11:25:24.032Z,9.41
2022-09-06T11:26:27.012Z,9.57
2022-09-06T11:27:29.782Z,8.48
2022-09-06T11:28:33.380Z,7.99
2022-09-06T11:29:36.570Z,9.56
2022-09-06T11:30:39.658Z,9.43
2022-09-06T11:32:47.022Z,8.36
2022-09-06T11:33:50.096Z,8.32
2022-09-06T11:34:52.972Z,9.44
2022-09-06T11:35:55.963Z,8.38
2022-09-06T11:36:58.732Z,7.98
2022-09-06T11:38:01.816Z,9.37
2022-09-06T11:39:04.986Z,12.16
2022-09-06T11:41:12.574Z,10.22
2022-09-06T11:42:15.555Z,9.29
2022-09-06T11:43:18.743Z,7.50
2022-09-06T11:44:21.608Z,11.83
2022-09-06T11:45:24.699Z,10.81
2022-09-06T11:46:27.835Z,10.58
2022-09-06T11:47:31.263Z,9.98
2022-09-06T11:48:33.937Z,11.19
2022-09-06T11:49:37.231Z,8.98
2022-09-06T11:50:39.981Z,6.38
2022-09-06T11:51:43.582Z,7.29
2022-09-06T11:52:46.350Z,8.61
2022-09-06T11:53:49.329Z,7.20
2022-09-06T11:54:52.098Z,8.52
2022-09-06T11:55:55.073Z,7.08
2022-09-06T11:56:58.151Z,7.94
2022-09-06T11:58:01.442Z,9.50
2022-09-06T11:59:04.728Z,9.25
2022-09-06T12:00:07.905Z,7.00
2022-09-06T12:01:10.987Z,9.64
2022-09-06T12:02:13.969Z,10.04
2022-09-06T12:04:21.246Z,10.37
2022-09-06T12:05:24.327Z,8.95
2022-09-06T12:06:27.404Z,6.23
2022-09-06T12:07:30.187Z,8.65
2022-09-06T12:08:33.358Z,9.35
2022-09-06T12:09:36.643Z,10.18
2022-09-06T12:10:39.411Z,12.14
2022-09-06T12:11:42.188Z,9.10
2022-09-06T12:12:45.063Z,8.56
2022-09-06T12:13:48.143Z,10.83
2022-09-06T12:14:50.811Z,9.30
2022-09-06T12:15:53.680Z,9.05
2022-09-06T12:16:56.349Z,9.05
2022-09-06T12:17:59.333Z,9.28
2022-09-06T12:20:23.816Z,10.69
2022-09-06T12:21:27.508Z,7.11
2022-09-06T12:22:30.588Z,9.63
2022-09-06T12:23:33.884Z,10.67
2022-09-06T12:24:36.860Z,12.05
2022-09-06T12:25:40.153Z,10.59
2022-09-06T12:26:42.912Z,10.53
2022-09-06T12:27:45.686Z,8.45
2022-09-06T12:28:48.484Z,10.14
2022-09-06T12:29:51.323Z,10.80
2022-09-06T12:30:54.333Z,11.36
2022-09-06T12:31:57.085Z,12.69
2022-09-06T12:32:59.962Z,11.68
2022-09-06T12:34:02.834Z,10.63
2022-09-06T12:36:10.326Z,11.01
2022-09-06T12:37:13.207Z,11.35
2022-09-06T12:38:15.863Z,8.58
2022-09-06T12:39:18.659Z,7.91
2022-09-06T12:40:21.510Z,10.38
2022-09-06T12:41:24.483Z,9.46
2022-09-06T12:42:27.360Z,7.87
2022-09-06T12:43:30.232Z,9.61
2022-09-06T12:44:33.109Z,10.54
2022-09-06T12:45:36.087Z,10.12
2022-09-06T12:46:38.938Z,10.85
2022-09-06T12:47:41.734Z,9.76
2022-09-06T12:48:44.505Z,10.22
2022-09-06T12:49:47.481Z,9.41
2022-09-06T12:50:50.368Z,9.75
2022-09-06T12:51:53.226Z,10.28
2022-09-06T12:52:56.017Z,11.05
2022-09-06T12:53:58.987Z,8.82
2022-09-06T12:55:02.225Z,9.53
2022-09-06T12:56:05.140Z,8.47
2022-09-06T12:57:08.119Z,8.78
2022-09-06T12:58:11.403Z,9.52
2022-09-06T12:59:14.582Z,10.02
2022-09-06T13:00:17.681Z,8.51
2022-09-06T13:02:37.442Z,10.55
2022-09-06T13:03:40.519Z,11.27
2022-09-06T13:04:43.290Z,13.68
2022-09-06T13:05:46.173Z,12.72
2022-09-06T13:06:48.842Z,13.38
2022-09-06T13:07:51.612Z,12.71
2022-09-06T13:08:54.278Z,10.86
2022-09-06T13:09:56.945Z,12.08
2022-09-06T13:10:59.939Z,11.82
2022-09-06T13:12:02.700Z,15.66
2022-09-06T13:13:05.569Z,16.02
2022-09-06T13:14:12.023Z,14.47
2022-09-06T13:15:12.781Z,14.94
2022-09-06T13:16:15.691Z,12.22
2022-09-06T13:17:18.612Z,20.98
2022-09-06T13:18:21.480Z,16.14
2022-09-06T13:19:24.256Z,14.49
2022-09-06T13:20:28.498Z,13.32
2022-09-06T13:21:31.142Z,11.00
2022-09-06T13:22:34.006Z,10.82
2022-09-06T13:23:36.875Z,10.44
2022-09-06T13:24:43.294Z,9.68
2022-09-06T13:25:44.063Z,8.04
2022-09-06T13:26:46.832Z,8.24
2022-09-06T13:27:49.705Z,8.35
2022-09-06T13:28:52.584Z,8.82
2022-09-06T13:29:55.691Z,6.65
2022-09-06T13:30:58.561Z,9.55
2022-09-06T13:32:01.416Z,8.83
2022-09-06T13:33:04.184Z,8.26
2022-09-06T13:34:06.850Z,8.13
2022-09-06T13:35:09.621Z,8.26
2022-09-06T13:36:12.300Z,8.87
2022-09-06T13:37:14.963Z,7.35
2022-09-06T13:38:17.735Z,7.25
2022-09-06T13:39:20.506Z,7.43
2022-09-06T13:40:23.380Z,7.64
2022-09-06T13:41:26.166Z,8.29
2022-09-06T13:42:28.929Z,7.92
2022-09-06T13:43:31.699Z,7.00
2022-09-06T13:44:34.480Z,6.65
2022-09-06T13:45:37.459Z,7.01
2022-09-06T13:46:40.670Z,6.23
2022-09-06T13:47:43.515Z,7.92
2022-09-06T13:48:46.179Z,8.87
2022-09-06T13:49:49.259Z,12.24
2022-09-06T13:50:52.337Z,22.75
2022-09-06T13:51:55.510Z,20.68
2022-09-06T13:52:58.693Z,17.28
2022-09-06T13:54:01.566Z,19.26
2022-09-06T13:55:04.646Z,19.34
2022-09-06T13:56:07.743Z,13.94
2022-09-06T13:57:10.803Z,14.67
2022-09-06T13:58:13.783Z,15.09
2022-09-06T13:59:16.778Z,15.64
2022-09-06T14:00:19.941Z,15.27
2022-09-06T14:01:23.088Z,14.39
2022-09-06T14:02:25.957Z,11.81
2022-09-06T14:03:29.078Z,14.18
2022-09-06T14:04:32.060Z,11.32
2022-09-06T14:05:35.447Z,9.14
2022-09-06T14:06:38.522Z,9.62
2022-09-06T14:07:41.400Z,8.69
2022-09-06T14:09:05.780Z,11.17
2022-09-06T14:09:48.788Z,12.09
2022-09-06T14:10:51.659Z,9.68
2022-09-06T14:11:54.540Z,9.20
2022-09-06T14:12:57.309Z,8.45
2022-09-06T14:14:00.289Z,7.32
2022-09-06T14:15:03.373Z,7.99
2022-09-06T14:16:06.318Z,7.99
2022-09-06T14:17:09.211Z,7.05
2022-09-06T14:18:14.478Z,7.55
2022-09-06T14:19:16.607Z,7.43
2022-09-06T14:20:19.479Z,7.09
2022-09-06T14:21:22.355Z,7.09
2022-09-06T14:22:25.028Z,4.62
2022-09-06T14:23:27.922Z,5.20